sensor_id;sensor_type;location;lat;lon;timestamp;P1;durP1;ratioP1;P2;durP2;ratioP2
63005;SDS011;53704;52.532;6.426;2024-02-26T00:02:16;18.00;;;10.48;;
63005;SDS011;53704;52.532;6.426;2024-02-26T00:04:42;15.15;;;10.93;;
63005;SDS011;53704;52.532;6.426;2024-02-26T00:07:07;11.18;;;10.07;;
63005;SDS011;53704;52.532;6.426;2024-02-26T00:09:33;15.13;;;11.25;;
63005;SDS011;53704;52.532;6.426;2024-02-26T00:12:04;12.27;;;11.07;;
63005;SDS011;53704;52.532;6.426;2024-02-26T00:14:30;13.30;;;11.98;;
63005;SDS011;53704;52.532;6.426;2024-02-26T00:16:56;12.80;;;11.32;;
63005;SDS011;53704;52.532;6.426;2024-02-26T00:19:21;13.35;;;11.95;;
63005;SDS011;53704;52.532;6.426;2024-02-26T00:21:46;13.93;;;11.80;;
63005;SDS011;53704;52.532;6.426;2024-02-26T00:24:12;16.23;;;11.80;;
63005;SDS011;53704;52.532;6.426;2024-02-26T00:26:38;19.70;;;12.35;;
63005;SDS011;53704;52.532;6.426;2024-02-26T00:29:03;13.98;;;10.98;;
63005;SDS011;53704;52.532;6.426;2024-02-26T00:31:29;12.68;;;11.48;;
63005;SDS011;53704;52.532;6.426;2024-02-26T00:33:54;13.05;;;11.65;;
63005;SDS011;53704;52.532;6.426;2024-02-26T00:36:19;14.13;;;11.38;;
63005;SDS011;53704;52.532;6.426;2024-02-26T00:38:45;15.15;;;13.13;;
63005;SDS011;53704;52.532;6.426;2024-02-26T00:41:15;14.32;;;12.82;;
63005;SDS011;53704;52.532;6.426;2024-02-26T00:43:44;16.98;;;12.30;;
63005;SDS011;53704;52.532;6.426;2024-02-26T00:46:09;14.98;;;13.20;;
63005;SDS011;53704;52.532;6.426;2024-02-26T00:48:35;19.25;;;14.32;;
63005;SDS011;53704;52.532;6.426;2024-02-26T00:51:00;17.00;;;13.80;;
63005;SDS011;53704;52.532;6.426;2024-02-26T00:53:26;17.08;;;13.90;;
63005;SDS011;53704;52.532;6.426;2024-02-26T00:55:51;15.40;;;13.18;;
63005;SDS011;53704;52.532;6.426;2024-02-26T00:58:17;16.42;;;13.70;;
63005;SDS011;53704;52.532;6.426;2024-02-26T01:00:43;14.43;;;13.10;;
63005;SDS011;53704;52.532;6.426;2024-02-26T01:03:08;18.27;;;13.80;;
63005;SDS011;53704;52.532;6.426;2024-02-26T01:05:35;14.32;;;12.98;;
63005;SDS011;53704;52.532;6.426;2024-02-26T01:08:01;15.75;;;12.88;;
63005;SDS011;53704;52.532;6.426;2024-02-26T01:10:26;15.90;;;14.20;;
63005;SDS011;53704;52.532;6.426;2024-02-26T01:12:52;16.52;;;12.77;;
63005;SDS011;53704;52.532;6.426;2024-02-26T01:15:17;15.93;;;14.25;;
63005;SDS011;53704;52.532;6.426;2024-02-26T01:17:46;19.42;;;14.10;;
63005;SDS011;53704;52.532;6.426;2024-02-26T01:20:12;19.38;;;14.60;;
63005;SDS011;53704;52.532;6.426;2024-02-26T01:22:37;13.93;;;12.30;;
63005;SDS011;53704;52.532;6.426;2024-02-26T01:25:03;19.80;;;14.18;;
63005;SDS011;53704;52.532;6.426;2024-02-26T01:27:29;14.77;;;12.85;;
63005;SDS011;53704;52.532;6.426;2024-02-26T01:29:54;14.18;;;12.77;;
63005;SDS011;53704;52.532;6.426;2024-02-26T01:32:20;14.40;;;12.52;;
63005;SDS011;53704;52.532;6.426;2024-02-26T01:34:45;16.00;;;13.45;;
63005;SDS011;53704;52.532;6.426;2024-02-26T01:37:11;18.33;;;13.95;;
63005;SDS011;53704;52.532;6.426;2024-02-26T01:39:36;13.95;;;12.52;;
63005;SDS011;53704;52.532;6.426;2024-02-26T01:42:02;14.38;;;12.88;;
63005;SDS011;53704;52.532;6.426;2024-02-26T01:44:27;20.90;;;14.75;;
63005;SDS011;53704;52.532;6.426;2024-02-26T01:46:53;16.77;;;13.63;;
63005;SDS011;53704;52.532;6.426;2024-02-26T01:49:19;15.23;;;13.73;;
63005;SDS011;53704;52.532;6.426;2024-02-26T01:51:44;19.77;;;13.75;;
63005;SDS011;53704;52.532;6.426;2024-02-26T01:54:11;14.77;;;13.20;;
63005;SDS011;53704;52.532;6.426;2024-02-26T01:56:37;18.25;;;14.52;;
63005;SDS011;53704;52.532;6.426;2024-02-26T01:59:04;15.52;;;13.93;;
63005;SDS011;53704;52.532;6.426;2024-02-26T02:01:31;15.07;;;13.52;;
63005;SDS011;53704;52.532;6.426;2024-02-26T02:03:58;16.58;;;14.55;;
63005;SDS011;53704;52.532;6.426;2024-02-26T02:06:24;20.70;;;15.10;;
63005;SDS011;53704;52.532;6.426;2024-02-26T02:08:50;17.08;;;14.23;;
63005;SDS011;53704;52.532;6.426;2024-02-26T02:11:16;18.60;;;13.90;;
63005;SDS011;53704;52.532;6.426;2024-02-26T02:13:45;20.17;;;14.98;;
63005;SDS011;53704;52.532;6.426;2024-02-26T02:16:11;17.77;;;14.82;;
63005;SDS011;53704;52.532;6.426;2024-02-26T02:18:37;18.73;;;15.57;;
63005;SDS011;53704;52.532;6.426;2024-02-26T02:21:02;16.90;;;14.23;;
63005;SDS011;53704;52.532;6.426;2024-02-26T02:23:28;19.52;;;14.70;;
63005;SDS011;53704;52.532;6.426;2024-02-26T02:25:54;18.42;;;15.93;;
63005;SDS011;53704;52.532;6.426;2024-02-26T02:28:25;17.92;;;15.88;;
63005;SDS011;53704;52.532;6.426;2024-02-26T02:30:52;24.60;;;15.52;;
63005;SDS011;53704;52.532;6.426;2024-02-26T02:33:18;19.85;;;16.95;;
63005;SDS011;53704;52.532;6.426;2024-02-26T02:35:44;23.23;;;17.02;;
63005;SDS011;53704;52.532;6.426;2024-02-26T02:38:11;19.75;;;15.75;;
63005;SDS011;53704;52.532;6.426;2024-02-26T02:40:36;17.67;;;15.20;;
63005;SDS011;53704;52.532;6.426;2024-02-26T02:43:02;22.73;;;16.65;;
63005;SDS011;53704;52.532;6.426;2024-02-26T02:45:31;23.58;;;16.00;;
63005;SDS011;53704;52.532;6.426;2024-02-26T02:47:56;19.77;;;17.67;;
63005;SDS011;53704;52.532;6.426;2024-02-26T02:50:22;28.85;;;18.35;;
63005;SDS011;53704;52.532;6.426;2024-02-26T02:52:48;22.52;;;17.25;;
63005;SDS011;53704;52.532;6.426;2024-02-26T02:55:15;22.95;;;17.50;;
63005;SDS011;53704;52.532;6.426;2024-02-26T02:57:41;22.63;;;17.98;;
63005;SDS011;53704;52.532;6.426;2024-02-26T03:00:08;21.42;;;17.10;;
63005;SDS011;53704;52.532;6.426;2024-02-26T03:02:34;23.05;;;18.80;;
63005;SDS011;53704;52.532;6.426;2024-02-26T03:05:03;23.30;;;17.65;;
63005;SDS011;53704;52.532;6.426;2024-02-26T03:07:29;23.40;;;18.52;;
63005;SDS011;53704;52.532;6.426;2024-02-26T03:09:54;27.02;;;17.95;;
63005;SDS011;53704;52.532;6.426;2024-02-26T03:12:20;24.17;;;17.35;;
63005;SDS011;53704;52.532;6.426;2024-02-26T03:14:46;20.30;;;17.42;;
63005;SDS011;53704;52.532;6.426;2024-02-26T03:17:11;19.77;;;17.42;;
63005;SDS011;53704;52.532;6.426;2024-02-26T03:19:37;20.40;;;17.35;;
63005;SDS011;53704;52.532;6.426;2024-02-26T03:22:02;23.95;;;17.27;;
63005;SDS011;53704;52.532;6.426;2024-02-26T03:24:28;19.23;;;16.77;;
63005;SDS011;53704;52.532;6.426;2024-02-26T03:26:53;23.40;;;17.73;;
63005;SDS011;53704;52.532;6.426;2024-02-26T03:29:19;27.52;;;19.40;;
63005;SDS011;53704;52.532;6.426;2024-02-26T03:31:44;27.90;;;19.20;;
63005;SDS011;53704;52.532;6.426;2024-02-26T03:34:10;24.25;;;18.13;;
63005;SDS011;53704;52.532;6.426;2024-02-26T03:36:39;23.13;;;17.50;;
63005;SDS011;53704;52.532;6.426;2024-02-26T03:39:04;23.00;;;17.92;;
63005;SDS011;53704;52.532;6.426;2024-02-26T03:41:34;24.52;;;18.80;;
63005;SDS011;53704;52.532;6.426;2024-02-26T03:44:06;27.63;;;20.17;;
63005;SDS011;53704;52.532;6.426;2024-02-26T03:46:32;27.73;;;18.25;;
63005;SDS011;53704;52.532;6.426;2024-02-26T03:48:57;29.95;;;19.25;;
63005;SDS011;53704;52.532;6.426;2024-02-26T03:51:22;28.98;;;17.95;;
63005;SDS011;53704;52.532;6.426;2024-02-26T03:53:48;27.23;;;20.73;;
63005;SDS011;53704;52.532;6.426;2024-02-26T03:56:14;26.40;;;18.90;;
63005;SDS011;53704;52.532;6.426;2024-02-26T03:58:39;27.88;;;18.90;;
63005;SDS011;53704;52.532;6.426;2024-02-26T04:01:09;26.17;;;19.17;;
63005;SDS011;53704;52.532;6.426;2024-02-26T04:03:35;31.38;;;19.58;;
63005;SDS011;53704;52.532;6.426;2024-02-26T04:06:02;32.60;;;20.70;;
63005;SDS011;53704;52.532;6.426;2024-02-26T04:08:28;25.75;;;19.02;;
63005;SDS011;53704;52.532;6.426;2024-02-26T04:10:59;33.05;;;21.30;;
63005;SDS011;53704;52.532;6.426;2024-02-26T04:13:26;33.53;;;21.20;;
63005;SDS011;53704;52.532;6.426;2024-02-26T04:15:51;34.00;;;21.25;;
63005;SDS011;53704;52.532;6.426;2024-02-26T04:18:17;32.55;;;20.10;;
63005;SDS011;53704;52.532;6.426;2024-02-26T04:20:43;35.45;;;22.35;;
63005;SDS011;53704;52.532;6.426;2024-02-26T04:23:09;34.95;;;20.67;;
63005;SDS011;53704;52.532;6.426;2024-02-26T04:25:36;31.05;;;21.42;;
63005;SDS011;53704;52.532;6.426;2024-02-26T04:28:01;34.20;;;21.42;;
63005;SDS011;53704;52.532;6.426;2024-02-26T04:30:28;38.38;;;21.73;;
63005;SDS011;53704;52.532;6.426;2024-02-26T04:32:55;32.28;;;20.63;;
63005;SDS011;53704;52.532;6.426;2024-02-26T04:35:22;35.63;;;22.38;;
63005;SDS011;53704;52.532;6.426;2024-02-26T04:37:47;33.25;;;21.67;;
63005;SDS011;53704;52.532;6.426;2024-02-26T04:40:13;36.97;;;22.35;;
63005;SDS011;53704;52.532;6.426;2024-02-26T04:42:39;34.33;;;20.67;;
63005;SDS011;53704;52.532;6.426;2024-02-26T04:45:04;31.35;;;20.58;;
63005;SDS011;53704;52.532;6.426;2024-02-26T04:47:32;36.28;;;22.20;;
63005;SDS011;53704;52.532;6.426;2024-02-26T04:49:57;37.25;;;22.35;;
63005;SDS011;53704;52.532;6.426;2024-02-26T04:52:22;36.65;;;22.42;;
63005;SDS011;53704;52.532;6.426;2024-02-26T04:54:49;33.67;;;21.75;;
63005;SDS011;53704;52.532;6.426;2024-02-26T04:57:15;33.92;;;21.35;;
63005;SDS011;53704;52.532;6.426;2024-02-26T04:59:43;35.25;;;23.40;;
63005;SDS011;53704;52.532;6.426;2024-02-26T05:02:10;41.63;;;23.75;;
63005;SDS011;53704;52.532;6.426;2024-02-26T05:04:35;39.85;;;23.88;;
63005;SDS011;53704;52.532;6.426;2024-02-26T05:07:02;44.70;;;25.38;;
63005;SDS011;53704;52.532;6.426;2024-02-26T05:09:28;44.33;;;25.58;;
63005;SDS011;53704;52.532;6.426;2024-02-26T05:11:54;46.08;;;26.30;;
63005;SDS011;53704;52.532;6.426;2024-02-26T05:14:22;48.17;;;26.98;;
63005;SDS011;53704;52.532;6.426;2024-02-26T05:16:49;48.58;;;26.55;;
63005;SDS011;53704;52.532;6.426;2024-02-26T05:19:14;50.78;;;27.15;;
63005;SDS011;53704;52.532;6.426;2024-02-26T05:21:40;49.13;;;27.05;;
63005;SDS011;53704;52.532;6.426;2024-02-26T05:24:07;64.95;;;30.90;;
63005;SDS011;53704;52.532;6.426;2024-02-26T05:26:33;59.83;;;30.95;;
63005;SDS011;53704;52.532;6.426;2024-02-26T05:28:58;63.00;;;31.08;;
63005;SDS011;53704;52.532;6.426;2024-02-26T05:31:26;63.50;;;31.33;;
63005;SDS011;53704;52.532;6.426;2024-02-26T05:33:52;59.05;;;30.02;;
63005;SDS011;53704;52.532;6.426;2024-02-26T05:36:19;60.63;;;30.45;;
63005;SDS011;53704;52.532;6.426;2024-02-26T05:38:47;57.20;;;29.25;;
63005;SDS011;53704;52.532;6.426;2024-02-26T05:41:14;59.38;;;29.33;;
63005;SDS011;53704;52.532;6.426;2024-02-26T05:46:16;57.00;;;28.92;;
63005;SDS011;53704;52.532;6.426;2024-02-26T05:48:42;61.67;;;29.67;;
63005;SDS011;53704;52.532;6.426;2024-02-26T05:51:09;59.28;;;30.83;;
63005;SDS011;53704;52.532;6.426;2024-02-26T05:53:34;70.20;;;33.20;;
63005;SDS011;53704;52.532;6.426;2024-02-26T05:56:00;64.68;;;31.75;;
63005;SDS011;53704;52.532;6.426;2024-02-26T05:58:25;62.88;;;31.08;;
63005;SDS011;53704;52.532;6.426;2024-02-26T06:00:51;63.90;;;32.13;;
63005;SDS011;53704;52.532;6.426;2024-02-26T06:03:16;65.10;;;30.70;;
63005;SDS011;53704;52.532;6.426;2024-02-26T06:05:42;63.55;;;29.38;;
63005;SDS011;53704;52.532;6.426;2024-02-26T06:08:08;63.85;;;31.67;;
63005;SDS011;53704;52.532;6.426;2024-02-26T06:10:33;59.13;;;30.02;;
63005;SDS011;53704;52.532;6.426;2024-02-26T06:12:59;55.30;;;28.05;;
63005;SDS011;53704;52.532;6.426;2024-02-26T06:15:24;55.20;;;29.02;;
63005;SDS011;53704;52.532;6.426;2024-02-26T06:17:51;58.63;;;30.58;;
63005;SDS011;53704;52.532;6.426;2024-02-26T06:20:17;48.92;;;28.85;;
63005;SDS011;53704;52.532;6.426;2024-02-26T06:22:43;55.10;;;27.27;;
63005;SDS011;53704;52.532;6.426;2024-02-26T06:25:08;55.97;;;27.73;;
63005;SDS011;53704;52.532;6.426;2024-02-26T06:27:35;56.75;;;31.50;;
63005;SDS011;53704;52.532;6.426;2024-02-26T06:30:01;62.53;;;26.52;;
63005;SDS011;53704;52.532;6.426;2024-02-26T06:32:26;50.40;;;25.42;;
63005;SDS011;53704;52.532;6.426;2024-02-26T06:34:53;52.72;;;26.90;;
63005;SDS011;53704;52.532;6.426;2024-02-26T06:37:19;43.63;;;23.73;;
63005;SDS011;53704;52.532;6.426;2024-02-26T06:39:45;44.92;;;25.20;;
63005;SDS011;53704;52.532;6.426;2024-02-26T06:42:10;39.67;;;23.65;;
63005;SDS011;53704;52.532;6.426;2024-02-26T06:44:36;42.97;;;21.42;;
63005;SDS011;53704;52.532;6.426;2024-02-26T06:47:01;37.25;;;22.70;;
63005;SDS011;53704;52.532;6.426;2024-02-26T06:49:27;28.98;;;18.63;;
63005;SDS011;53704;52.532;6.426;2024-02-26T06:51:53;29.20;;;18.83;;
63005;SDS011;53704;52.532;6.426;2024-02-26T06:54:20;27.45;;;20.70;;
63005;SDS011;53704;52.532;6.426;2024-02-26T06:56:45;25.42;;;18.42;;
63005;SDS011;53704;52.532;6.426;2024-02-26T06:59:12;25.42;;;17.20;;
63005;SDS011;53704;52.532;6.426;2024-02-26T07:01:41;25.08;;;18.08;;
63005;SDS011;53704;52.532;6.426;2024-02-26T07:04:08;21.52;;;15.48;;
63005;SDS011;53704;52.532;6.426;2024-02-26T07:06:36;26.75;;;16.02;;
63005;SDS011;53704;52.532;6.426;2024-02-26T07:09:02;23.05;;;16.80;;
63005;SDS011;53704;52.532;6.426;2024-02-26T07:11:27;22.05;;;15.48;;
63005;SDS011;53704;52.532;6.426;2024-02-26T07:13:53;22.67;;;15.52;;
63005;SDS011;53704;52.532;6.426;2024-02-26T07:16:19;21.60;;;15.65;;
63005;SDS011;53704;52.532;6.426;2024-02-26T07:18:44;20.90;;;16.05;;
63005;SDS011;53704;52.532;6.426;2024-02-26T07:21:11;18.30;;;15.05;;
63005;SDS011;53704;52.532;6.426;2024-02-26T07:23:37;22.63;;;15.25;;
63005;SDS011;53704;52.532;6.426;2024-02-26T07:26:03;20.27;;;14.55;;
63005;SDS011;53704;52.532;6.426;2024-02-26T07:28:30;19.95;;;15.02;;
63005;SDS011;53704;52.532;6.426;2024-02-26T07:30:55;19.67;;;14.25;;
63005;SDS011;53704;52.532;6.426;2024-02-26T07:33:21;21.35;;;16.25;;
63005;SDS011;53704;52.532;6.426;2024-02-26T07:35:46;22.13;;;16.17;;
63005;SDS011;53704;52.532;6.426;2024-02-26T07:38:12;19.75;;;14.73;;
63005;SDS011;53704;52.532;6.426;2024-02-26T07:40:39;18.48;;;14.55;;
63005;SDS011;53704;52.532;6.426;2024-02-26T07:43:04;16.60;;;13.60;;
63005;SDS011;53704;52.532;6.426;2024-02-26T07:45:30;18.45;;;14.73;;
63005;SDS011;53704;52.532;6.426;2024-02-26T07:47:56;17.33;;;14.05;;
63005;SDS011;53704;52.532;6.426;2024-02-26T07:50:21;22.60;;;15.15;;
63005;SDS011;53704;52.532;6.426;2024-02-26T07:52:47;19.60;;;13.85;;
63005;SDS011;53704;52.532;6.426;2024-02-26T07:55:12;20.30;;;13.98;;
63005;SDS011;53704;52.532;6.426;2024-02-26T07:57:41;16.88;;;13.18;;
63005;SDS011;53704;52.532;6.426;2024-02-26T08:00:08;19.15;;;13.73;;
63005;SDS011;53704;52.532;6.426;2024-02-26T08:02:34;16.58;;;14.15;;
63005;SDS011;53704;52.532;6.426;2024-02-26T08:05:06;16.20;;;12.68;;
63005;SDS011;53704;52.532;6.426;2024-02-26T08:07:31;20.42;;;14.05;;
63005;SDS011;53704;52.532;6.426;2024-02-26T08:09:57;16.20;;;12.80;;
63005;SDS011;53704;52.532;6.426;2024-02-26T08:12:22;14.23;;;12.85;;
63005;SDS011;53704;52.532;6.426;2024-02-26T08:14:48;22.48;;;13.40;;
63005;SDS011;53704;52.532;6.426;2024-02-26T08:17:13;15.90;;;12.52;;
63005;SDS011;53704;52.532;6.426;2024-02-26T08:19:39;14.40;;;12.68;;
63005;SDS011;53704;52.532;6.426;2024-02-26T08:22:04;18.38;;;12.02;;
63005;SDS011;53704;52.532;6.426;2024-02-26T08:24:30;14.50;;;10.85;;
63005;SDS011;53704;52.532;6.426;2024-02-26T08:26:55;20.45;;;11.80;;
63005;SDS011;53704;52.532;6.426;2024-02-26T08:29:21;13.32;;;11.27;;
63005;SDS011;53704;52.532;6.426;2024-02-26T08:31:46;11.60;;;10.50;;
63005;SDS011;53704;52.532;6.426;2024-02-26T08:34:13;11.55;;;10.32;;
63005;SDS011;53704;52.532;6.426;2024-02-26T08:36:40;12.93;;;10.50;;
63005;SDS011;53704;52.532;6.426;2024-02-26T08:39:06;11.45;;;10.25;;
63005;SDS011;53704;52.532;6.426;2024-02-26T08:41:32;12.77;;;10.80;;
63005;SDS011;53704;52.532;6.426;2024-02-26T08:43:57;13.10;;;11.80;;
63005;SDS011;53704;52.532;6.426;2024-02-26T08:46:23;13.95;;;10.07;;
63005;SDS011;53704;52.532;6.426;2024-02-26T08:48:49;13.60;;;9.93;;
63005;SDS011;53704;52.532;6.426;2024-02-26T08:51:14;13.52;;;10.23;;
63005;SDS011;53704;52.532;6.426;2024-02-26T08:53:40;11.55;;;10.40;;
63005;SDS011;53704;52.532;6.426;2024-02-26T08:56:05;14.10;;;10.18;;
63005;SDS011;53704;52.532;6.426;2024-02-26T08:58:31;12.18;;;10.15;;
63005;SDS011;53704;52.532;6.426;2024-02-26T09:00:57;12.65;;;10.20;;
63005;SDS011;53704;52.532;6.426;2024-02-26T09:03:26;11.65;;;9.88;;
63005;SDS011;53704;52.532;6.426;2024-02-26T09:05:51;12.20;;;8.95;;
63005;SDS011;53704;52.532;6.426;2024-02-26T09:08:17;9.82;;;8.82;;
63005;SDS011;53704;52.532;6.426;2024-02-26T09:10:42;9.55;;;8.75;;
63005;SDS011;53704;52.532;6.426;2024-02-26T09:13:08;9.02;;;8.15;;
63005;SDS011;53704;52.532;6.426;2024-02-26T09:15:33;9.10;;;8.20;;
63005;SDS011;53704;52.532;6.426;2024-02-26T09:17:59;8.68;;;7.88;;
63005;SDS011;53704;52.532;6.426;2024-02-26T09:20:24;9.38;;;8.35;;
63005;SDS011;53704;52.532;6.426;2024-02-26T09:22:50;9.15;;;8.35;;
63005;SDS011;53704;52.532;6.426;2024-02-26T09:25:16;8.60;;;7.93;;
63005;SDS011;53704;52.532;6.426;2024-02-26T09:27:44;11.73;;;8.65;;
63005;SDS011;53704;52.532;6.426;2024-02-26T09:30:10;8.73;;;7.88;;
63005;SDS011;53704;52.532;6.426;2024-02-26T09:32:36;8.93;;;8.05;;
63005;SDS011;53704;52.532;6.426;2024-02-26T09:35:02;11.98;;;8.73;;
63005;SDS011;53704;52.532;6.426;2024-02-26T09:37:28;9.05;;;8.32;;
63005;SDS011;53704;52.532;6.426;2024-02-26T09:39:54;10.38;;;8.02;;
63005;SDS011;53704;52.532;6.426;2024-02-26T09:42:19;8.57;;;7.70;;
63005;SDS011;53704;52.532;6.426;2024-02-26T09:44:45;8.30;;;7.75;;
63005;SDS011;53704;52.532;6.426;2024-02-26T09:47:13;7.80;;;7.03;;
63005;SDS011;53704;52.532;6.426;2024-02-26T09:49:42;7.97;;;7.05;;
63005;SDS011;53704;52.532;6.426;2024-02-26T09:52:08;10.18;;;9.30;;
63005;SDS011;53704;52.532;6.426;2024-02-26T09:54:36;9.02;;;8.38;;
63005;SDS011;53704;52.532;6.426;2024-02-26T09:57:03;17.20;;;8.13;;
63005;SDS011;53704;52.532;6.426;2024-02-26T09:59:37;8.20;;;7.50;;
63005;SDS011;53704;52.532;6.426;2024-02-26T10:02:11;8.82;;;6.95;;
63005;SDS011;53704;52.532;6.426;2024-02-26T10:04:38;8.75;;;7.05;;
63005;SDS011;53704;52.532;6.426;2024-02-26T10:07:12;8.07;;;7.47;;
63005;SDS011;53704;52.532;6.426;2024-02-26T10:09:38;8.73;;;7.40;;
63005;SDS011;53704;52.532;6.426;2024-02-26T10:12:06;8.15;;;7.45;;
63005;SDS011;53704;52.532;6.426;2024-02-26T10:14:35;7.88;;;7.25;;
63005;SDS011;53704;52.532;6.426;2024-02-26T10:17:03;8.07;;;7.47;;
63005;SDS011;53704;52.532;6.426;2024-02-26T10:19:33;7.97;;;7.30;;
63005;SDS011;53704;52.532;6.426;2024-02-26T10:22:02;8.57;;;7.78;;
63005;SDS011;53704;52.532;6.426;2024-02-26T10:24:29;8.05;;;7.47;;
63005;SDS011;53704;52.532;6.426;2024-02-26T10:26:55;7.75;;;7.05;;
63005;SDS011;53704;52.532;6.426;2024-02-26T10:29:24;8.93;;;8.10;;
63005;SDS011;53704;52.532;6.426;2024-02-26T10:31:50;7.45;;;6.95;;
63005;SDS011;53704;52.532;6.426;2024-02-26T10:34:16;7.35;;;6.85;;
63005;SDS011;53704;52.532;6.426;2024-02-26T10:36:42;10.25;;;7.78;;
63005;SDS011;53704;52.532;6.426;2024-02-26T10:39:09;8.90;;;8.02;;
63005;SDS011;53704;52.532;6.426;2024-02-26T10:41:43;7.90;;;7.28;;
63005;SDS011;53704;52.532;6.426;2024-02-26T10:44:10;7.97;;;7.22;;
63005;SDS011;53704;52.532;6.426;2024-02-26T10:46:37;8.13;;;7.55;;
63005;SDS011;53704;52.532;6.426;2024-02-26T10:49:05;7.70;;;7.25;;
63005;SDS011;53704;52.532;6.426;2024-02-26T10:51:32;6.88;;;6.40;;
63005;SDS011;53704;52.532;6.426;2024-02-26T10:54:01;8.70;;;7.75;;
63005;SDS011;53704;52.532;6.426;2024-02-26T10:56:34;7.50;;;7.00;;
63005;SDS011;53704;52.532;6.426;2024-02-26T10:59:01;8.18;;;7.38;;
63005;SDS011;53704;52.532;6.426;2024-02-26T11:01:27;7.78;;;7.18;;
63005;SDS011;53704;52.532;6.426;2024-02-26T11:03:56;7.55;;;7.05;;
63005;SDS011;53704;52.532;6.426;2024-02-26T11:06:23;8.52;;;7.88;;
63005;SDS011;53704;52.532;6.426;2024-02-26T11:08:52;8.38;;;7.78;;
63005;SDS011;53704;52.532;6.426;2024-02-26T11:11:19;7.25;;;6.68;;
63005;SDS011;53704;52.532;6.426;2024-02-26T11:13:47;7.50;;;7.00;;
63005;SDS011;53704;52.532;6.426;2024-02-26T11:16:18;7.60;;;6.90;;
63005;SDS011;53704;52.532;6.426;2024-02-26T11:18:45;7.85;;;7.30;;
63005;SDS011;53704;52.532;6.426;2024-02-26T11:21:13;8.38;;;7.63;;
63005;SDS011;53704;52.532;6.426;2024-02-26T11:23:45;7.90;;;7.32;;
63005;SDS011;53704;52.532;6.426;2024-02-26T11:26:14;7.85;;;7.05;;
63005;SDS011;53704;52.532;6.426;2024-02-26T11:28:42;8.52;;;7.75;;
63005;SDS011;53704;52.532;6.426;2024-02-26T11:31:09;7.32;;;6.72;;
63005;SDS011;53704;52.532;6.426;2024-02-26T11:33:36;8.00;;;7.38;;
63005;SDS011;53704;52.532;6.426;2024-02-26T11:36:07;11.07;;;7.20;;
63005;SDS011;53704;52.532;6.426;2024-02-26T11:38:36;7.43;;;6.88;;
63005;SDS011;53704;52.532;6.426;2024-02-26T11:41:02;6.85;;;6.45;;
63005;SDS011;53704;52.532;6.426;2024-02-26T11:49:03;7.15;;;6.55;;
63005;SDS011;53704;52.532;6.426;2024-02-26T11:51:52;7.97;;;7.38;;
63005;SDS011;53704;52.532;6.426;2024-02-26T11:59:46;9.10;;;8.10;;
63005;SDS011;53704;52.532;6.426;2024-02-26T12:02:56;8.20;;;7.55;;
63005;SDS011;53704;52.532;6.426;2024-02-26T12:05:16;7.88;;;7.38;;
63005;SDS011;53704;52.532;6.426;2024-02-26T12:07:43;8.57;;;7.68;;
63005;SDS011;53704;52.532;6.426;2024-02-26T12:10:31;8.25;;;7.60;;
63005;SDS011;53704;52.532;6.426;2024-02-26T12:13:16;8.43;;;7.65;;
63005;SDS011;53704;52.532;6.426;2024-02-26T12:15:43;8.15;;;7.63;;
63005;SDS011;53704;52.532;6.426;2024-02-26T12:18:10;9.18;;;8.45;;
63005;SDS011;53704;52.532;6.426;2024-02-26T12:20:40;7.35;;;6.85;;
63005;SDS011;53704;52.532;6.426;2024-02-26T12:23:06;8.23;;;7.55;;
63005;SDS011;53704;52.532;6.426;2024-02-26T12:25:32;8.23;;;7.53;;
63005;SDS011;53704;52.532;6.426;2024-02-26T12:27:58;11.07;;;7.57;;
63005;SDS011;53704;52.532;6.426;2024-02-26T12:30:26;8.85;;;7.95;;
63005;SDS011;53704;52.532;6.426;2024-02-26T12:32:54;8.00;;;7.40;;
63005;SDS011;53704;52.532;6.426;2024-02-26T12:35:25;9.18;;;8.48;;
63005;SDS011;53704;52.532;6.426;2024-02-26T12:37:52;8.98;;;8.05;;
63005;SDS011;53704;52.532;6.426;2024-02-26T12:40:18;8.65;;;7.93;;
63005;SDS011;53704;52.532;6.426;2024-02-26T12:42:45;9.00;;;8.20;;
63005;SDS011;53704;52.532;6.426;2024-02-26T12:45:13;9.50;;;8.68;;
63005;SDS011;53704;52.532;6.426;2024-02-26T12:47:42;8.50;;;7.88;;
63005;SDS011;53704;52.532;6.426;2024-02-26T12:50:08;8.35;;;7.65;;
63005;SDS011;53704;52.532;6.426;2024-02-26T12:52:45;9.02;;;8.30;;
63005;SDS011;53704;52.532;6.426;2024-02-26T12:55:18;9.43;;;8.30;;
63005;SDS011;53704;52.532;6.426;2024-02-26T12:57:46;9.20;;;8.48;;
63005;SDS011;53704;52.532;6.426;2024-02-26T13:00:15;11.50;;;7.13;;
63005;SDS011;53704;52.532;6.426;2024-02-26T13:02:43;8.68;;;7.97;;
63005;SDS011;53704;52.532;6.426;2024-02-26T13:05:10;7.93;;;7.43;;
63005;SDS011;53704;52.532;6.426;2024-02-26T13:07:45;8.13;;;7.53;;
63005;SDS011;53704;52.532;6.426;2024-02-26T13:10:12;7.03;;;6.57;;
63005;SDS011;53704;52.532;6.426;2024-02-26T13:12:45;7.40;;;6.57;;
63005;SDS011;53704;52.532;6.426;2024-02-26T13:15:17;8.52;;;7.78;;
63005;SDS011;53704;52.532;6.426;2024-02-26T13:17:44;8.02;;;7.38;;
63005;SDS011;53704;52.532;6.426;2024-02-26T13:20:10;11.07;;;7.57;;
63005;SDS011;53704;52.532;6.426;2024-02-26T13:22:36;7.65;;;7.10;;
63005;SDS011;53704;52.532;6.426;2024-02-26T13:25:02;7.25;;;6.65;;
63005;SDS011;53704;52.532;6.426;2024-02-26T13:27:28;7.25;;;6.75;;
63005;SDS011;53704;52.532;6.426;2024-02-26T13:30:04;7.43;;;6.90;;
63005;SDS011;53704;52.532;6.426;2024-02-26T13:32:37;7.82;;;6.65;;
63005;SDS011;53704;52.532;6.426;2024-02-26T13:35:06;6.95;;;6.43;;
63005;SDS011;53704;52.532;6.426;2024-02-26T13:37:34;7.25;;;6.72;;
63005;SDS011;53704;52.532;6.426;2024-02-26T13:40:00;6.97;;;6.38;;
63005;SDS011;53704;52.532;6.426;2024-02-26T13:42:29;8.82;;;7.70;;
63005;SDS011;53704;52.532;6.426;2024-02-26T13:44:54;7.70;;;7.10;;
63005;SDS011;53704;52.532;6.426;2024-02-26T13:47:20;7.38;;;6.75;;
63005;SDS011;53704;52.532;6.426;2024-02-26T13:49:46;6.95;;;6.43;;
63005;SDS011;53704;52.532;6.426;2024-02-26T13:52:13;6.28;;;5.68;;
63005;SDS011;53704;52.532;6.426;2024-02-26T13:54:39;6.40;;;6.00;;
63005;SDS011;53704;52.532;6.426;2024-02-26T13:57:05;7.07;;;6.47;;
63005;SDS011;53704;52.532;6.426;2024-02-26T13:59:32;7.30;;;6.70;;
63005;SDS011;53704;52.532;6.426;2024-02-26T14:01:57;6.53;;;6.03;;
63005;SDS011;53704;52.532;6.426;2024-02-26T14:04:23;10.73;;;6.60;;
63005;SDS011;53704;52.532;6.426;2024-02-26T14:06:48;7.05;;;6.45;;
63005;SDS011;53704;52.532;6.426;2024-02-26T14:09:14;8.27;;;6.43;;
63005;SDS011;53704;52.532;6.426;2024-02-26T14:11:48;6.75;;;6.20;;
63005;SDS011;53704;52.532;6.426;2024-02-26T14:14:14;6.85;;;6.35;;
63005;SDS011;53704;52.532;6.426;2024-02-26T14:16:40;6.70;;;6.22;;
63005;SDS011;53704;52.532;6.426;2024-02-26T14:19:05;6.47;;;5.97;;
63005;SDS011;53704;52.532;6.426;2024-02-26T14:21:31;7.28;;;6.78;;
63005;SDS011;53704;52.532;6.426;2024-02-26T14:23:57;7.07;;;6.50;;
63005;SDS011;53704;52.532;6.426;2024-02-26T14:26:22;5.97;;;5.57;;
63005;SDS011;53704;52.532;6.426;2024-02-26T14:28:48;7.32;;;6.82;;
63005;SDS011;53704;52.532;6.426;2024-02-26T14:31:18;7.50;;;6.90;;
63005;SDS011;53704;52.532;6.426;2024-02-26T14:33:45;6.80;;;6.22;;
63005;SDS011;53704;52.532;6.426;2024-02-26T14:36:11;7.18;;;6.75;;
63005;SDS011;53704;52.532;6.426;2024-02-26T14:38:37;6.47;;;5.97;;
63005;SDS011;53704;52.532;6.426;2024-02-26T14:41:04;7.45;;;6.70;;
63005;SDS011;53704;52.532;6.426;2024-02-26T14:43:31;8.32;;;7.07;;